Time;durP1;ratioP1;P1;durP2;ratioP2;P2;SDS_P1;SDS_P2;PMS_P1;PMS_P2;Temp;Humidity;BMP_temperature;BMP_pressure;BME280_temperature;BME280_humidity;BME280_pressure;Samples;Min_cycle;Max_cycle;Signal;HPM_P1;HPM_P2
2022/08/23 00:02:06;;;;;;;14.32;5.90;;;16.50;99.90;;;15.47;100.00;101463.78;4975357;28;20040;-80
2022/08/23 00:04:41;;;;;;;18.33;5.80;;;16.50;99.90;;;15.44;100.00;101469.25;4972860;28;20045;-79
2022/08/23 00:07:12;;;;;;;16.70;5.95;;;16.40;99.90;;;15.44;100.00;101469.25;4990427;28;20105;-79
2022/08/23 00:09:38;;;;;;;11.48;5.75;;;16.40;99.90;;;15.42;100.00;101465.84;4974678;28;20116;-79
2022/08/23 00:12:09;;;;;;;19.42;6.05;;;16.40;99.90;;;15.44;100.00;101463.09;4963738;28;20044;-80
2022/08/23 00:14:39;;;;;;;17.20;6.00;;;16.40;99.90;;;15.40;100.00;101462.44;4961622;28;20037;-79
2022/08/23 00:17:10;;;;;;;15.90;6.30;;;16.30;99.90;;;15.37;100.00;101465.22;4981303;28;20037;-80
2022/08/23 00:19:37;;;;;;;23.85;6.97;;;16.30;99.90;;;15.36;100.00;101461.72;4990309;28;20033;-80
2022/08/23 00:22:03;;;;;;;18.45;5.90;;;16.30;99.90;;;15.36;100.00;101463.53;4962091;28;20033;-80
2022/08/23 00:24:29;;;;;;;13.43;5.22;;;16.30;99.90;;;15.26;100.00;101465.81;5013589;28;20049;-78
2022/08/23 00:27:15;;;;;;;18.33;6.10;;;16.30;99.90;;;15.26;100.00;101464.97;4980050;28;20029;-80
2022/08/23 00:29:53;;;;;;;17.30;5.88;;;16.20;99.90;;;15.26;100.00;101459.66;4994028;28;20033;-80
2022/08/23 00:32:23;;;;;;;20.17;5.90;;;16.20;99.90;;;15.23;100.00;101460.69;4950072;28;20580;-81
2022/08/23 00:34:50;;;;;;;19.33;5.70;;;16.20;99.90;;;15.18;100.00;101463.59;4952705;28;20033;-80
2022/08/23 00:37:17;;;;;;;13.90;5.93;;;16.20;99.90;;;15.18;100.00;101468.03;4950872;28;20033;-80
2022/08/23 00:39:44;;;;;;;23.40;6.13;;;16.20;99.90;;;15.18;100.00;101460.06;4954458;28;20033;-79
2022/08/23 00:48:41;;;;;;;15.70;5.00;;;16.00;99.90;;;15.03;100.00;101460.91;4968641;28;20061;-80
2022/08/23 00:51:31;;;;;;;15.13;6.70;;;16.00;99.90;;;14.99;100.00;101465.53;5000509;28;20103;-79
2022/08/23 00:54:02;;;;;;;20.23;6.30;;;15.90;99.90;;;14.96;100.00;101455.06;4947695;28;20037;-80
2022/08/23 00:56:33;;;;;;;15.07;6.60;;;15.90;99.90;;;14.93;100.00;101448.13;4955394;28;20785;-80
2022/08/23 00:59:06;;;;;;;17.27;6.05;;;15.90;99.90;;;14.89;100.00;101448.38;4989633;28;20612;-80
2022/08/23 01:01:33;;;;;;;15.85;6.53;;;15.90;99.90;;;14.91;100.00;101447.38;4998841;28;20034;-80
2022/08/23 01:03:59;;;;;;;12.30;4.60;;;15.90;99.90;;;14.93;100.00;101447.28;4971715;28;20033;-80
2022/08/23 01:06:34;;;;;;;10.15;5.70;;;15.90;99.90;;;14.94;100.00;101446.34;4980310;28;20607;-80
2022/08/23 01:09:10;;;;;;;16.67;5.53;;;15.90;99.90;;;14.93;100.00;101448.13;4955607;28;20070;-79
2022/08/23 01:11:58;;;;;;;19.08;6.13;;;15.90;99.90;;;14.92;100.00;101443.78;4986899;28;20043;-80
2022/08/23 01:14:50;;;;;;;14.32;5.90;;;15.80;99.90;;;14.87;100.00;101440.50;4986435;28;20037;-80
2022/08/23 01:17:29;;;;;;;17.20;5.80;;;15.80;99.90;;;14.82;100.00;101439.06;4946918;28;20744;-79
2022/08/23 01:20:12;;;;;;;9.95;3.97;;;15.80;99.90;;;14.82;100.00;101437.25;4934471;28;20069;-80
2022/08/23 01:23:08;;;;;;;11.95;4.10;;;15.80;99.90;;;14.84;100.00;101434.50;4975277;28;20104;-79
2022/08/23 01:25:35;;;;;;;12.77;5.05;;;15.80;99.90;;;14.88;100.00;101433.41;5008695;28;20033;-80
2022/08/23 01:28:02;;;;;;;18.88;5.18;;;15.80;99.90;;;14.85;100.00;101438.88;4970874;28;20076;-79
2022/08/23 01:30:33;;;;;;;13.98;5.32;;;15.80;99.90;;;14.85;100.00;101438.88;4964611;28;20211;-79
2022/08/23 01:33:05;;;;;;;13.68;4.88;;;15.90;99.90;;;14.94;100.00;101435.72;4942129;28;20051;-79
2022/08/23 01:35:43;;;;;;;13.02;5.20;;;15.90;99.90;;;14.98;100.00;101442.59;4977214;28;20066;-80
2022/08/23 01:38:16;;;;;;;10.95;4.78;;;15.90;99.90;;;15.04;100.00;101449.38;4944713;28;20541;-79
2022/08/23 01:40:43;;;;;;;16.80;4.60;;;16.00;99.90;;;15.07;100.00;101435.94;4981030;28;20037;-79
2022/08/23 01:43:12;;;;;;;13.15;4.85;;;16.00;99.90;;;15.13;100.00;101440.91;4961617;28;20036;-79
2022/08/23 01:45:42;;;;;;;13.80;5.03;;;16.10;99.90;;;15.18;100.00;101442.38;4951886;28;20037;-80
2022/08/23 01:48:08;;;;;;;16.23;5.97;;;16.10;99.90;;;15.24;100.00;101437.66;4937741;28;20029;-79
2022/08/23 01:50:34;;;;;;;12.80;5.47;;;16.20;99.90;;;15.27;100.00;101435.72;4942311;28;20029;-79
2022/08/23 01:53:00;;;;;;;17.77;7.38;;;16.20;99.90;;;15.33;100.00;101431.84;4953939;28;20041;-79
2022/08/23 01:55:26;;;;;;;16.80;7.35;;;16.20;99.90;;;15.37;100.00;101439.56;4964318;28;20450;-79
2022/08/23 01:57:59;;;;;;;27.63;8.05;;;16.30;99.90;;;15.45;100.00;101430.31;4970750;28;20030;-79
2022/08/23 02:00:34;;;;;;;18.05;6.57;;;16.30;99.90;;;15.46;100.00;101438.19;4956115;28;20064;-79
2022/08/23 02:03:09;;;;;;;18.13;6.63;;;16.40;99.90;;;15.48;100.00;101438.09;4978413;28;20089;-80
2022/08/23 02:05:36;;;;;;;13.98;5.80;;;16.40;99.90;;;15.53;100.00;101442.22;4980020;28;20037;-79
2022/08/23 02:11:22;;;;;;;21.92;6.70;;;16.40;99.90;;;15.46;100.00;101438.19;4941848;28;20082;-80
2022/08/23 02:13:50;;;;;;;13.75;6.72;;;16.40;99.90;;;15.51;100.00;101435.28;4966716;28;20053;-79
2022/08/23 02:16:32;;;;;;;20.52;6.53;;;16.40;99.90;;;15.50;100.00;101438.88;4988479;28;20111;-80
2022/08/23 02:19:09;;;;;;;20.92;5.85;;;16.40;99.90;;;15.48;100.00;101438.94;4971168;28;20160;-80
2022/08/23 02:21:37;;;;;;;14.32;4.82;;;16.40;99.90;;;15.46;100.00;101440.84;4985916;28;20029;-80
2022/08/23 02:24:15;;;;;;;13.10;4.93;;;16.40;99.90;;;15.47;100.00;101444.38;4964923;28;20040;-80
2022/08/23 02:26:52;;;;;;;21.80;6.28;;;16.40;99.90;;;15.50;100.00;101442.38;4978975;28;20058;-80
2022/08/23 02:29:20;;;;;;;;;;;16.40;99.90;;;15.38;100.00;101445.75;4989065;28;20045;-80
2022/08/23 02:31:46;;;;;;;22.02;6.07;;;16.40;99.90;;;15.43;100.00;101448.13;5005282;28;20722;-80
2022/08/23 02:34:17;;;;;;;21.02;6.63;;;16.40;99.90;;;15.49;100.00;101458.41;4967341;28;20035;-80
2022/08/23 02:36:44;;;;;;;19.83;7.38;;;16.40;99.90;;;15.47;100.00;101442.56;4945077;28;21097;-80
2022/08/23 02:39:11;;;;;;;19.08;8.00;;;16.40;99.90;;;15.49;100.00;101445.13;4996919;28;20061;-80
2022/08/23 02:41:37;;;;;;;19.27;7.93;;;16.40;99.90;;;15.51;100.00;101444.09;4961458;28;20029;-80
2022/08/23 02:44:08;;;;;;;16.98;7.60;;;16.40;99.90;;;15.56;100.00;101447.34;4974604;28;20152;-81
2022/08/23 02:46:34;;;;;;;14.88;7.38;;;16.50;99.90;;;15.58;100.00;101440.16;4975785;28;20038;-80
2022/08/23 02:49:00;;;;;;;12.05;5.97;;;16.50;99.90;;;15.56;100.00;101449.16;4988746;28;20513;-80
2022/08/23 02:51:26;;;;;;;16.33;7.43;;;16.50;99.90;;;15.53;100.00;101447.53;4957464;28;20082;-80
2022/08/23 02:53:52;;;;;;;15.52;6.38;;;16.40;99.90;;;15.53;100.00;101454.66;4943583;28;20046;-80
2022/08/23 02:56:18;;;;;;;;;;;16.50;99.90;;;15.48;100.00;101459.34;4965095;28;20042;-80
2022/08/23 02:58:51;;;;;;;15.63;6.85;;;16.40;99.90;;;15.47;100.00;101461.16;4944054;28;20000;-80
2022/08/23 03:01:27;;;;;;;28.85;7.53;;;16.40;99.90;;;15.50;100.00;101468.91;4939073;28;20604;-80
2022/08/23 03:03:54;;;;;;;15.32;6.43;;;16.40;99.90;;;15.51;100.00;101464.50;4973634;28;20070;-80
2022/08/23 03:06:21;;;;;;;13.57;6.07;;;16.40;99.90;;;15.51;100.00;101464.50;4956133;28;20041;-80
2022/08/23 03:08:47;;;;;;;14.68;5.70;;;16.40;99.90;;;15.52;100.00;101466.19;4980993;28;20518;-80
2022/08/23 03:11:20;;;;;;;18.70;6.22;;;16.40;99.90;;;15.55;100.00;101471.31;4960968;28;20110;-80
2022/08/23 03:13:48;;;;;;;15.75;6.10;;;16.40;99.90;;;15.56;100.00;101468.59;4973861;28;20037;-80
2022/08/23 03:16:15;;;;;;;13.07;5.32;;;16.50;99.90;;;15.57;100.00;101461.47;4924032;28;20037;-80
2022/08/23 03:18:42;;;;;;;11.65;5.20;;;16.50;99.90;;;15.56;100.00;101462.44;4961362;28;20048;-79
2022/08/23 03:21:14;;;;;;;17.27;6.63;;;16.50;99.90;;;15.56;100.00;101468.59;4976347;28;20053;-80
2022/08/23 03:23:40;;;;;;;13.77;5.50;;;16.50;99.90;;;15.59;100.00;101467.56;4953160;28;20043;-80
2022/08/23 03:26:10;;;;;;;18.88;7.32;;;16.50;99.90;;;15.61;100.00;101478.94;5002294;28;20049;-80
2022/08/23 03:28:43;;;;;;;10.90;6.22;;;16.50;99.90;;;15.63;100.00;101486.81;4970450;28;20030;-81
2022/08/23 03:31:11;;;;;;;15.07;7.35;;;16.50;99.90;;;15.58;100.00;101482.63;4954456;28;20034;-81
2022/08/23 03:33:37;;;;;;;16.90;8.18;;;16.50;99.90;;;15.56;100.00;101479.19;4977634;28;20486;-81
2022/08/23 03:36:08;;;;;;;17.58;8.90;;;16.40;99.90;;;15.48;100.00;101485.88;4971987;28;20049;-80
2022/08/23 03:38:49;;;;;;;19.98;9.23;;;16.40;99.90;;;15.43;100.00;101478.16;4967252;28;20065;-80
2022/08/23 03:41:16;;;;;;;14.75;8.73;;;16.40;99.90;;;15.45;100.00;101475.44;4984532;28;20093;-80
2022/08/23 03:43:42;;;;;;;17.77;8.50;;;16.40;99.90;;;15.50;100.00;101484.84;4960844;28;20072;-80
2022/08/23 03:46:21;;;;;;;20.45;9.40;;;16.40;99.90;;;15.54;100.00;101480.22;4966150;28;20033;-80
2022/08/23 03:48:49;;;;;;;14.02;8.50;;;16.50;99.90;;;15.55;100.00;101484.59;4939674;28;20553;-80
2022/08/23 03:51:21;;;;;;;16.17;6.80;;;16.50;99.90;;;15.58;100.00;101487.09;4940836;28;20071;-80
2022/08/23 03:53:48;;;;;;;17.80;7.50;;;16.50;99.90;;;15.58;100.00;101484.44;4965471;28;20055;-80
2022/08/23 03:56:26;;;;;;;12.38;6.53;;;16.50;99.90;;;15.62;100.00;101487.78;4957455;28;20045;-79
2022/08/23 03:58:53;;;;;;;15.25;7.55;;;16.50;99.90;;;15.63;100.00;101487.69;4972452;28;20424;-81
2022/08/23 04:01:19;;;;;;;12.35;5.97;;;16.50;99.90;;;15.66;100.00;101486.66;4968637;28;20049;-80
2022/08/23 04:03:47;;;;;;;14.23;6.75;;;16.50;99.90;;;15.66;100.00;101489.28;4925975;28;20521;-80
2022/08/23 04:06:16;;;;;;;9.63;5.43;;;16.60;99.90;;;15.68;100.00;101493.59;4947387;28;20049;-80
2022/08/23 04:08:43;;;;;;;12.13;5.00;;;16.60;99.90;;;15.72;100.00;101500.50;4971604;28;20049;-79
2022/08/23 04:11:11;;;;;;;8.25;5.15;;;16.60;99.90;;;15.75;100.00;101502.13;4957085;28;20465;-80
2022/08/23 04:13:38;;;;;;;12.95;4.78;;;16.60;99.90;;;15.78;100.00;101509.91;4968473;28;20049;-80
2022/08/23 04:16:13;;;;;;;13.82;5.15;;;16.60;99.90;;;15.81;100.00;101508.84;4960838;28;20029;-80
2022/08/23 04:18:39;;;;;;;11.90;5.55;;;16.70;99.90;;;15.86;100.00;101504.16;4988188;28;20029;-80
2022/08/23 04:21:11;;;;;;;19.05;6.32;;;16.70;99.90;;;15.90;100.00;101514.53;4972589;28;20033;-80
2022/08/23 04:23:38;;;;;;;14.45;5.15;;;16.70;99.90;;;15.92;100.00;101512.63;4970263;28;20060;-80
2022/08/23 04:26:06;;;;;;;14.02;4.90;;;16.80;99.90;;;15.96;100.00;101513.31;4964783;28;20032;-80
2022/08/23 04:28:39;;;;;;;9.77;4.65;;;16.80;99.90;;;15.99;100.00;101516.66;5009258;28;20033;-80
2022/08/23 04:31:05;;;;;;;15.90;6.22;;;16.90;99.90;;;16.03;100.00;101516.50;4973028;28;20053;-80
2022/08/23 04:33:32;;;;;;;11.45;4.55;;;16.80;99.90;;;16.01;100.00;101524.53;4926441;28;20046;-79
2022/08/23 04:36:02;;;;;;;12.35;5.28;;;16.90;99.90;;;16.04;100.00;101532.31;4933674;28;20136;-80
2022/08/23 04:38:33;;;;;;;13.10;5.70;;;16.90;99.90;;;16.06;100.00;101522.47;4924739;28;20037;-80
2022/08/23 04:43:43;;;;;;;13.35;5.60;;;16.90;99.90;;;16.07;100.00;101528.63;4997466;28;20068;-80
2022/08/23 04:46:14;;;;;;;11.52;5.85;;;16.90;99.90;;;16.06;100.00;101530.44;4945075;28;20041;-80
2022/08/23 04:48:41;;;;;;;10.80;4.72;;;16.90;99.90;;;16.07;100.00;101534.81;4918086;28;20050;-80
2022/08/23 04:51:07;;;;;;;12.27;4.20;;;17.00;99.90;;;16.13;100.00;101537.13;4939855;28;20043;-81
2022/08/23 04:53:34;;;;;;;16.15;4.70;;;17.00;99.90;;;16.17;100.00;101543.13;4927620;28;20112;-80
2022/08/23 04:56:02;;;;;;;18.02;4.90;;;17.00;99.90;;;16.22;100.00;101543.72;4977048;28;20112;-80
2022/08/23 04:58:32;;;;;;;17.00;4.95;;;17.10;99.90;;;16.26;100.00;101549.69;4959203;28;20030;-81
2022/08/23 05:01:06;;;;;;;11.48;4.82;;;17.10;99.90;;;16.31;100.00;101551.16;4976094;28;20085;-80
2022/08/23 05:03:33;;;;;;;11.95;4.40;;;17.20;99.90;;;16.35;100.00;101550.03;4985481;28;20030;-80
2022/08/23 05:06:03;;;;;;;15.02;5.35;;;17.20;99.90;;;16.39;100.00;101550.69;4947166;28;20426;-80
2022/08/23 05:08:30;;;;;;;12.18;5.65;;;17.20;99.90;;;16.40;100.00;101552.44;4959848;28;20048;-80
2022/08/23 05:11:03;;;;;;;15.48;5.68;;;17.20;99.90;;;16.38;100.00;101552.50;4938975;28;22531;-80
2022/08/23 05:13:30;;;;;;;14.57;5.00;;;17.20;99.90;;;16.38;100.00;101552.50;4955238;28;20037;-79
2022/08/23 05:15:56;;;;;;;16.55;5.03;;;17.20;99.90;;;16.40;100.00;101549.78;4946718;28;20033;-80
2022/08/23 05:18:22;;;;;;;13.05;4.07;;;17.20;99.90;;;16.43;100.00;101554.91;4964150;28;20084;-80
2022/08/23 05:20:48;;;;;;;9.70;4.28;;;17.30;99.90;;;16.47;100.00;101555.59;4994332;28;20025;-80
2022/08/23 05:23:14;;;;;;;15.35;5.07;;;17.30;99.90;;;16.54;100.00;101557.81;5046961;22;20103;-75
2022/08/23 05:25:48;;;;;;;;;;;17.30;99.90;;;16.59;100.00;101554.88;5045796;28;20049;-76
2022/08/23 05:28:19;;;;;;;14.88;4.57;;;17.40;99.90;;;16.66;100.00;101560.69;5046120;28;19921;-76
2022/08/23 05:30:52;;;;;;;10.80;4.63;;;17.50;99.90;;;16.69;100.00;101553.38;5043107;28;20045;-75
2022/08/23 05:33:18;;;;;;;12.02;4.57;;;17.50;99.90;;;16.75;100.00;101560.97;5027073;28;20446;-75
2022/08/23 05:35:43;;;;;;;16.58;5.20;;;17.60;99.90;;;16.83;100.00;101557.91;5042336;28;20048;-75
2022/08/23 05:38:09;;;;;;;15.95;5.72;;;17.60;99.90;;;16.92;100.00;101561.81;5041195;28;20140;-76
2022/08/23 05:40:35;;;;;;;;;;;17.70;99.90;;;16.98;100.00;101564.97;5027978;28;20111;-76
2022/08/23 05:43:00;;;;;;;17.80;5.70;;;17.70;99.90;;;17.02;100.00;101568.31;5020892;28;19923;-75
2022/08/23 05:45:26;;;;;;;14.20;5.63;;;17.80;99.90;;;17.08;100.00;101561.75;5015895;28;20398;-75
2022/08/23 05:47:52;;;;;;;13.45;5.10;;;17.80;99.90;;;17.09;100.00;101568.78;5040140;28;20060;-75
2022/08/23 05:50:18;;;;;;;13.05;5.03;;;17.90;99.90;;;17.12;100.00;101568.59;5024207;28;20071;-76
2022/08/23 05:52:44;;;;;;;14.07;4.78;;;18.00;99.90;;;17.15;100.00;101569.28;5036260;28;20044;-75
2022/08/23 05:55:09;;;;;;;12.00;4.30;;;18.10;99.90;;;17.24;100.00;101570.50;5008437;28;20067;-76
2022/08/23 05:57:37;;;;;;;;;;;18.10;99.90;;;17.38;100.00;101569.66;5033002;28;20057;-75
2022/08/23 06:00:13;;;;;;;;;;;18.10;99.90;;;17.51;100.00;101562.63;5039253;28;19924;-75
2022/08/23 06:02:41;;;;;;;12.43;4.47;;;18.30;99.90;;;17.63;100.00;101567.19;5013746;28;19917;-76
2022/08/23 06:05:08;;;;;;;13.02;3.78;;;18.50;99.90;;;17.86;100.00;101572.03;5023281;28;20510;-74
2022/08/23 06:07:34;;;;;;;13.40;3.90;;;18.70;99.90;;;18.12;100.00;101573.88;5021340;28;20064;-74
2022/08/23 06:10:01;;;;;;;11.07;3.85;;;18.80;99.90;;;18.31;100.00;101572.66;5032789;28;20048;-74
2022/08/23 06:12:27;;;;;;;21.30;3.72;;;19.00;99.90;;;18.56;100.00;101563.91;5031021;28;20112;-74
2022/08/23 06:14:53;;;;;;;7.22;3.10;;;19.20;99.90;;;18.73;100.00;101573.44;5021313;28;20550;-74
2022/08/23 06:17:18;;;;;;;5.53;2.75;;;19.40;99.90;;;18.97;100.00;101577.13;5016084;28;20124;-75
2022/08/23 06:19:44;;;;;;;8.57;3.30;;;19.60;99.90;;;19.15;100.00;101583.00;5031049;28;20056;-74
2022/08/23 06:22:10;;;;;;;;;;;19.60;99.90;;;19.39;100.00;101585.78;5004516;28;20112;-74
2022/08/23 06:24:35;;;;;;;12.48;3.05;;;19.90;99.90;;;19.46;100.00;101584.41;5016148;28;19921;-74
2022/08/23 06:27:01;;;;;;;;;;;19.90;99.90;;;19.40;100.00;101584.00;5025930;28;20495;-74
2022/08/23 06:29:27;;;;;;;8.50;2.72;;;20.10;99.90;;;19.45;100.00;101585.34;5017391;28;21476;-75
2022/08/23 06:31:53;;;;;;;9.00;2.90;;;20.20;99.90;;;19.60;100.00;101582.56;5014846;28;20044;-75
2022/08/23 06:34:31;;;;;;;11.77;3.28;;;20.30;99.90;;;19.74;100.00;101586.94;5016341;28;20183;-74
2022/08/23 06:37:16;;;;;;;13.00;2.85;;;20.40;99.90;;;19.85;100.00;101582.56;5014829;28;20656;-74
2022/08/23 06:39:42;;;;;;;12.10;2.63;;;20.50;99.90;;;19.88;100.00;101582.31;5027474;28;22707;-74
2022/08/23 06:42:15;;;;;;;10.75;2.70;;;20.50;99.90;;;19.84;100.00;101578.16;5024023;28;20037;-74
2022/08/23 06:44:40;;;;;;;11.77;2.92;;;20.50;99.90;;;19.94;100.00;101586.38;5024524;28;20057;-74
2022/08/23 06:47:07;;;;;;;10.13;3.00;;;20.60;99.90;;;20.08;100.00;101585.34;5019379;28;20119;-74
2022/08/23 06:49:34;;;;;;;10.95;2.60;;;20.70;99.90;;;20.27;100.00;101590.22;5036169;28;20036;-74
2022/08/23 06:52:03;;;;;;;11.75;3.10;;;20.90;99.90;;;20.48;100.00;101587.78;5021442;28;20042;-75
2022/08/23 06:54:32;;;;;;;8.18;2.63;;;21.00;99.90;;;20.64;100.00;101591.00;5016906;28;20052;-74
2022/08/23 06:56:59;;;;;;;9.90;2.70;;;21.30;99.90;;;21.64;97.72;101599.41;5016254;28;20108;-75
2022/08/23 06:59:26;;;;;;;7.95;2.40;;;22.40;99.90;;;24.39;82.36;101596.59;5025382;28;20624;-75
2022/08/23 07:01:59;;;;;;;6.40;1.95;;;23.90;99.90;;;26.03;74.22;101599.09;5018904;28;20124;-74
2022/08/23 07:04:33;;;;;;;7.50;1.60;;;25.90;99.90;;;29.61;63.29;101599.00;5017464;28;20044;-75
2022/08/23 07:07:00;;;;;;;6.78;1.73;;;28.20;99.90;;;31.67;55.43;101600.97;5019728;28;20041;-74
2022/08/23 07:09:28;;;;;;;7.72;1.83;;;30.00;99.90;;;32.98;52.92;101598.16;5035256;28;20045;-74
2022/08/23 07:11:54;;;;;;;5.85;1.50;;;31.20;99.90;;;32.87;50.71;101592.22;5026822;28;20128;-74
2022/08/23 07:14:22;;;;;;;6.25;1.63;;;32.10;96.90;;;33.49;47.64;101606.06;5037555;28;20037;-75
2022/08/23 07:16:55;;;;;;;8.88;1.50;;;32.80;96.90;;;34.35;46.57;101613.78;5034910;28;20100;-75
2022/08/23 07:19:26;;;;;;;5.72;1.50;;;33.40;94.20;;;34.45;45.19;101613.34;5035276;28;20044;-74
2022/08/23 07:21:52;;;;;;;5.13;1.40;;;33.60;94.20;;;34.07;45.82;101622.09;5035156;28;20111;-75
2022/08/23 07:24:19;;;;;;;5.97;1.30;;;33.60;92.70;;;32.87;46.15;101616.75;5036414;28;20119;-75
2022/08/23 07:26:48;;;;;;;3.10;1.10;;;32.60;92.30;;;29.96;49.05;101624.00;5034121;28;20034;-74
2022/08/23 07:29:16;;;;;;;6.22;1.40;;;30.90;93.80;;;28.28;53.33;101620.09;5021012;28;20049;-77
2022/08/23 07:31:55;;;;;;;5.60;1.58;;;29.60;95.10;;;27.34;55.08;101621.03;5003065;28;20033;-75
2022/08/23 07:34:23;;;;;;;9.55;1.25;;;28.60;97.30;;;26.86;56.79;101625.06;5033864;28;20032;-75
2022/08/23 07:36:52;;;;;;;4.65;1.52;;;27.70;98.50;;;26.10;58.69;101627.16;5035669;28;20033;-74
2022/08/23 07:39:21;;;;;;;4.43;1.38;;;27.00;98.70;;;25.55;59.01;101627.97;5024076;28;20524;-75
2022/08/23 07:41:46;;;;;;;4.40;1.40;;;26.50;98.60;;;25.09;58.60;101626.91;5018519;28;20041;-74
2022/08/23 07:44:13;;;;;;;7.38;1.20;;;26.10;99.90;;;25.26;59.43;101632.59;5034933;28;20060;-74
2022/08/23 07:46:43;;;;;;;4.50;1.20;;;25.90;99.90;;;25.19;60.11;101632.31;5022086;28;20468;-75
2022/08/23 07:49:11;;;;;;;5.38;1.55;;;25.80;99.90;;;24.99;59.24;101631.50;5033239;28;20120;-75
2022/08/23 07:51:39;;;;;;;5.35;1.38;;;25.50;99.90;;;24.75;59.95;101630.09;5018042;28;20581;-75
2022/08/23 07:54:08;;;;;;;9.52;1.40;;;25.40;99.90;;;25.00;59.83;101635.88;5017963;28;20120;-75
2022/08/23 07:56:34;;;;;;;5.82;1.30;;;25.80;99.90;;;26.74;56.53;101643.38;5034571;28;20039;-75
2022/08/23 07:59:01;;;;;;;6.57;1.25;;;27.20;99.90;;;28.84;52.74;101647.44;5006435;28;20038;-75
2022/08/23 08:01:28;;;;;;;5.50;1.40;;;29.00;99.10;;;30.54;48.99;101642.66;5038443;28;20053;-75
2022/08/23 08:03:58;;;;;;;4.93;1.13;;;30.30;95.80;;;31.11;47.35;101644.09;5029619;28;20400;-75
2022/08/23 08:06:41;;;;;;;5.78;1.17;;;31.40;94.80;;;31.70;45.08;101648.75;5040504;28;20052;-74
2022/08/23 08:09:08;;;;;;;6.18;1.30;;;31.90;92.50;;;31.93;44.44;101645.91;5022497;28;21140;-74
2022/08/23 08:11:35;;;;;;;7.97;1.33;;;32.00;91.20;;;31.42;44.04;101654.81;5037549;28;20075;-75
2022/08/23 08:14:06;;;;;;;4.80;1.40;;;31.90;91.40;;;31.14;43.40;101651.88;5020095;28;20041;-74
2022/08/23 08:16:36;;;;;;;7.00;1.08;;;31.80;91.60;;;31.22;44.73;101666.25;5018374;28;20532;-75
2022/08/23 08:19:06;;;;;;;5.05;1.45;;;31.80;90.90;;;31.11;44.39;101674.03;5015284;28;20044;-75
2022/08/23 08:21:33;;;;;;;5.25;1.27;;;31.80;90.50;;;31.05;44.03;101683.75;5033501;28;20085;-75
2022/08/23 08:23:59;;;;;;;4.13;1.27;;;31.80;91.20;;;31.31;43.64;101674.34;5024690;28;20037;-75
2022/08/23 08:26:26;;;;;;;5.40;1.05;;;31.80;90.10;;;31.15;42.72;101675.34;5018434;28;20033;-75
2022/08/23 08:28:55;;;;;;;5.63;1.35;;;31.90;91.00;;;31.59;42.84;101693.63;5019108;28;20053;-75
2022/08/23 08:31:24;;;;;;;5.57;1.25;;;31.60;90.60;;;30.93;43.77;101690.66;5011888;28;20037;-75
2022/08/23 08:33:51;;;;;;;7.55;1.40;;;31.60;90.50;;;30.87;43.50;101703.13;5015726;28;20849;-75
2022/08/23 08:36:35;;;;;;;2.58;0.95;;;31.10;90.80;;;29.67;44.71;101688.88;5008697;28;20041;-75
2022/08/23 08:39:08;;;;;;;7.45;1.58;;;30.70;91.70;;;29.93;45.93;101678.63;5019470;28;20029;-75
2022/08/23 08:42:16;;;;;;;4.05;1.10;;;30.60;93.00;;;30.42;46.37;101683.84;5022818;28;20060;-76
2022/08/23 08:44:48;;;;;;;3.72;1.20;;;30.70;92.50;;;30.43;46.09;101681.97;5016591;28;20116;-75
2022/08/23 08:47:42;;;;;;;3.92;1.40;;;30.60;91.60;;;30.21;44.58;101689.03;5043567;28;20084;-75
2022/08/23 08:50:20;;;;;;;5.25;1.42;;;30.30;92.30;;;29.62;46.56;101676.66;5024004;28;20044;-75
2022/08/23 08:52:59;;;;;;;7.45;1.05;;;29.60;93.70;;;28.64;49.76;101676.72;5014721;28;20123;-75
2022/08/23 08:55:37;;;;;;;2.97;1.30;;;29.30;93.80;;;28.86;48.47;101677.09;5022733;28;20440;-75
2022/08/23 08:58:06;;;;;;;4.68;1.58;;;28.80;93.70;;;27.95;50.27;101674.13;5016089;28;20033;-75
2022/08/23 09:00:37;;;;;;;5.47;1.80;;;28.50;94.80;;;27.81;51.66;101674.69;5017188;28;20164;-75
2022/08/23 09:03:15;;;;;;;3.08;1.42;;;28.20;94.90;;;27.49;51.29;101672.66;5026542;28;20056;-75
2022/08/23 09:06:19;;;;;;;6.97;1.52;;;27.90;94.30;;;26.88;50.86;101664.41;5026356;28;20049;-75
2022/08/23 09:09:23;;;;;;;4.95;1.42;;;27.40;95.90;;;26.37;54.11;101668.59;5023017;28;20037;-75
2022/08/23 09:12:23;;;;;;;3.53;1.10;;;27.00;96.00;;;25.97;54.36;101664.44;5021633;28;20034;-76
2022/08/23 09:15:21;;;;;;;4.75;1.50;;;26.80;96.80;;;25.73;56.18;101660.41;5022591;28;20044;-74
2022/08/23 09:18:10;;;;;;;4.35;1.20;;;26.50;96.90;;;25.23;56.06;101651.78;5023540;28;20087;-75
2022/08/23 09:20:38;;;;;;;10.02;1.85;;;26.40;97.00;;;25.67;55.01;101660.16;5024032;28;20064;-74
2022/08/23 09:23:26;;;;;;;5.30;1.58;;;26.20;97.80;;;25.43;56.22;101650.72;5019132;28;20025;-74
2022/08/23 09:26:00;;;;;;;7.15;1.23;;;26.10;97.80;;;25.23;56.76;101646.38;5033612;28;20045;-75
2022/08/23 09:28:37;;;;;;;5.75;1.80;;;26.10;98.50;;;25.52;56.64;101649.81;5018583;28;20091;-74
2022/08/23 09:31:03;;;;;;;4.20;1.25;;;26.00;97.80;;;25.27;56.29;101642.38;5020388;28;21128;-74
2022/08/23 09:33:44;;;;;;;5.32;1.50;;;26.00;98.80;;;25.29;57.68;101635.88;5022900;28;20446;-74
2022/08/23 09:36:36;;;;;;;4.07;1.55;;;26.00;99.30;;;25.12;58.29;101637.41;5035285;28;20120;-75
2022/08/23 09:39:25;;;;;;;10.40;1.83;;;26.20;99.90;;;25.65;58.71;101643.25;5022339;28;20025;-74
2022/08/23 09:41:54;;;;;;;5.80;1.42;;;26.20;99.50;;;25.53;57.67;101640.75;5027733;28;20038;-75
2022/08/23 09:44:43;;;;;;;5.20;1.40;;;26.30;99.90;;;25.89;57.84;101640.91;5017259;28;20056;-74
2022/08/23 09:47:16;;;;;;;5.60;1.77;;;26.40;99.50;;;25.86;57.87;101637.63;5017695;28;20154;-74
2022/08/23 09:49:50;;;;;;;4.65;1.27;;;26.50;99.00;;;25.68;56.99;101624.94;5021093;28;20037;-74
2022/08/23 09:52:33;;;;;;;4.82;1.45;;;26.30;97.90;;;25.44;57.51;101624.59;5018092;28;20584;-74
2022/08/23 09:55:30;;;;;;;11.63;1.90;;;26.30;98.20;;;25.46;56.04;101623.44;5019776;28;20398;-74
2022/08/23 09:57:58;;;;;;;;;;;26.30;98.90;;;25.53;57.48;101631.81;5034119;28;20662;-74
2022/08/23 10:00:36;;;;;;;6.78;1.50;;;26.30;98.60;;;25.48;57.39;101621.44;5003961;28;19916;-75
2022/08/23 10:03:25;;;;;;;7.47;1.45;;;26.20;99.40;;;25.36;57.89;101622.66;5010120;28;20121;-73
2022/08/23 10:06:01;;;;;;;6.85;1.70;;;26.10;98.70;;;25.39;57.15;101630.44;5021164;28;20045;-74
2022/08/23 10:08:34;;;;;;;10.50;1.55;;;26.30;99.70;;;25.66;56.20;101623.38;5025726;28;20052;-74
2022/08/23 10:11:24;;;;;;;5.82;1.48;;;26.30;98.40;;;25.70;54.82;101628.34;5016818;28;20524;-75
2022/08/23 10:13:51;;;;;;;4.47;1.30;;;26.30;97.10;;;25.72;54.89;101618.25;5010293;28;20524;-74
2022/08/23 10:16:33;;;;;;;6.18;1.55;;;26.40;97.90;;;25.84;56.17;101627.00;5021750;28;20045;-74
2022/08/23 10:19:29;;;;;;;4.70;1.55;;;26.50;97.20;;;25.71;54.53;101623.78;5033925;28;20037;-74
2022/08/23 10:22:22;;;;;;;6.93;1.60;;;26.30;96.70;;;25.56;53.49;101618.03;5020409;28;20037;-73
2022/08/23 10:25:37;;;;;;;5.65;1.50;;;26.30;97.40;;;25.69;55.34;101618.53;5030224;28;20521;-75
2022/08/23 10:32:08;;;;;;;4.22;1.40;;;26.60;97.10;;;26.15;53.37;101627.53;5036049;28;20098;-74
2022/08/23 10:35:01;;;;;;;5.13;1.30;;;26.80;96.20;;;26.19;52.96;101620.84;5039849;28;20029;-74
2022/08/23 10:38:13;;;;;;;5.25;1.20;;;26.80;96.30;;;26.20;53.79;101624.41;5024198;28;20123;-74
2022/08/23 10:41:18;;;;;;;5.10;1.50;;;26.80;97.10;;;26.25;52.71;101619.41;5023526;28;20037;-74
2022/08/23 10:44:04;;;;;;;6.55;1.52;;;27.00;96.70;;;26.36;53.73;101626.44;5013141;28;20057;-74